createdAt,value
2018-11-27T00:00:10.538Z,30.00
2018-11-27T00:02:38.770Z,30.90
2018-11-27T00:05:08.214Z,31.73
2018-11-27T00:07:36.486Z,33.27
2018-11-27T00:10:06.778Z,31.53
2018-11-27T00:12:35.039Z,26.83
2018-11-27T00:15:03.624Z,29.20
2018-11-27T00:17:31.908Z,29.73
2018-11-27T00:20:00.121Z,33.13
2018-11-27T00:22:28.332Z,27.00
2018-11-27T00:24:56.533Z,26.40
2018-11-27T00:27:24.760Z,34.70
2018-11-27T00:29:52.965Z,29.27
2018-11-27T00:32:21.168Z,27.83
2018-11-27T00:34:49.382Z,30.97
2018-11-27T00:37:17.654Z,27.13
2018-11-27T00:39:45.887Z,23.47
2018-11-27T00:42:14.096Z,25.23
2018-11-27T00:44:42.303Z,29.43
2018-11-27T00:47:10.514Z,27.03
2018-11-27T00:49:38.711Z,28.80
2018-11-27T00:52:06.960Z,28.80
2018-11-27T00:54:35.170Z,27.07
2018-11-27T00:57:03.384Z,27.73
2018-11-27T00:59:31.622Z,29.23
2018-11-27T01:01:59.847Z,30.53
2018-11-27T01:04:28.057Z,28.97
2018-11-27T01:06:56.294Z,33.23
2018-11-27T01:09:24.514Z,31.20
2018-11-27T01:11:52.740Z,27.10
2018-11-27T01:14:20.954Z,33.47
2018-11-27T01:16:49.209Z,28.73
2018-11-27T01:19:17.411Z,34.23
2018-11-27T01:21:45.652Z,32.80
2018-11-27T01:24:13.863Z,31.50
2018-11-27T01:26:42.072Z,28.37
2018-11-27T01:29:10.279Z,29.20
2018-11-27T01:31:38.491Z,35.20
2018-11-27T01:34:06.718Z,31.97
2018-11-27T01:36:34.939Z,31.40
2018-11-27T01:39:03.735Z,28.73
2018-11-27T01:41:31.973Z,31.17
2018-11-27T01:44:00.430Z,30.00
2018-11-27T01:46:28.651Z,31.53
2018-11-27T01:48:56.881Z,29.83
2018-11-27T01:51:25.103Z,28.40
2018-11-27T01:53:53.309Z,30.30
2018-11-27T01:56:21.526Z,29.13
2018-11-27T01:58:49.743Z,27.90
2018-11-27T02:01:17.976Z,28.00
2018-11-27T02:03:46.198Z,28.50
2018-11-27T02:06:14.395Z,30.03
2018-11-27T02:08:42.603Z,28.33
2018-11-27T02:11:10.802Z,32.37
2018-11-27T02:13:39.023Z,35.30
2018-11-27T02:16:07.250Z,31.20
2018-11-27T02:18:35.458Z,28.97
2018-11-27T02:21:03.669Z,33.70
2018-11-27T02:23:31.929Z,28.10
2018-11-27T02:26:00.138Z,27.73
2018-11-27T02:28:28.358Z,27.87
2018-11-27T02:30:56.594Z,31.27
2018-11-27T02:33:24.807Z,30.77
2018-11-27T02:35:53.002Z,28.33
2018-11-27T02:38:21.218Z,28.53
2018-11-27T02:40:49.480Z,29.10
2018-11-27T02:43:17.706Z,24.80
2018-11-27T02:45:45.920Z,25.70
2018-11-27T02:48:14.162Z,29.53
2018-11-27T02:50:42.393Z,27.10
2018-11-27T02:53:10.623Z,25.73
2018-11-27T02:55:38.880Z,30.20
2018-11-27T02:58:07.125Z,26.23
2018-11-27T03:00:35.354Z,27.93
2018-11-27T03:03:03.568Z,30.90
2018-11-27T03:05:35.738Z,28.60
2018-11-27T03:08:03.983Z,33.77
2018-11-27T03:10:32.198Z,32.50
2018-11-27T03:13:00.416Z,30.00
2018-11-27T03:15:28.641Z,30.90
2018-11-27T03:17:56.944Z,31.77
2018-11-27T03:20:25.166Z,29.37
2018-11-27T03:22:53.387Z,28.93
2018-11-27T03:25:22.284Z,27.30
2018-11-27T03:27:51.397Z,27.60
2018-11-27T03:30:20.471Z,30.87
2018-11-27T03:32:48.727Z,34.23
2018-11-27T03:35:17.831Z,30.90
2018-11-27T03:37:47.320Z,31.20
2018-11-27T03:40:16.331Z,28.17
2018-11-27T03:42:44.533Z,31.63
2018-11-27T03:45:13.509Z,28.73
2018-11-27T03:47:41.748Z,26.67
2018-11-27T03:50:21.746Z,27.53
2018-11-27T03:52:49.993Z,30.77
2018-11-27T03:55:18.222Z,28.87
2018-11-27T03:57:46.420Z,24.83
2018-11-27T04:00:17.264Z,27.77
2018-11-27T04:02:47.590Z,26.00
2018-11-27T04:05:15.819Z,27.83
2018-11-27T04:07:44.030Z,28.90
2018-11-27T04:10:19.357Z,29.13
2018-11-27T04:12:47.562Z,28.53
2018-11-27T04:15:15.750Z,25.03
2018-11-27T04:17:43.948Z,25.83
2018-11-27T04:20:12.644Z,29.70
2018-11-27T04:22:41.362Z,27.83
2018-11-27T04:25:13.425Z,29.40
2018-11-27T04:27:41.689Z,27.20
2018-11-27T04:30:11.992Z,27.27
2018-11-27T04:32:40.247Z,23.87
2018-11-27T04:35:09.333Z,30.60
2018-11-27T04:37:37.534Z,26.23
2018-11-27T04:40:08.032Z,25.37
2018-11-27T04:42:36.238Z,23.13
2018-11-27T04:45:05.403Z,25.43
2018-11-27T04:47:33.629Z,22.50
2018-11-27T04:50:01.814Z,21.67
2018-11-27T04:52:30.110Z,23.43
2018-11-27T04:54:59.108Z,23.50
2018-11-27T04:57:27.325Z,25.70
2018-11-27T04:59:55.489Z,21.87
2018-11-27T05:02:23.681Z,25.30
2018-11-27T05:04:51.869Z,22.23
2018-11-27T05:07:20.057Z,27.53
2018-11-27T05:09:48.257Z,21.83
2018-11-27T05:12:16.489Z,25.37
2018-11-27T05:14:44.689Z,26.20
2018-11-27T05:17:12.876Z,24.60
2018-11-27T05:19:41.078Z,25.63
2018-11-27T05:22:09.393Z,21.90
2018-11-27T05:24:37.577Z,26.00
2018-11-27T05:27:05.768Z,19.93
2018-11-27T05:29:33.984Z,19.87
2018-11-27T05:32:02.182Z,19.73
2018-11-27T05:34:30.462Z,26.67
2018-11-27T05:36:58.665Z,21.83
2018-11-27T05:39:27.689Z,22.53
2018-11-27T05:41:56.032Z,21.83
2018-11-27T05:44:24.213Z,24.87
2018-11-27T05:46:52.432Z,22.90
2018-11-27T05:49:20.629Z,23.30
2018-11-27T05:51:48.845Z,17.57
2018-11-27T05:54:17.033Z,26.83
2018-11-27T05:56:45.253Z,27.83
2018-11-27T05:59:13.453Z,20.77
2018-11-27T06:01:41.633Z,25.50
2018-11-27T06:04:09.853Z,21.50
2018-11-27T06:06:38.054Z,20.57
2018-11-27T06:09:09.353Z,24.33
2018-11-27T06:11:38.165Z,22.00
2018-11-27T06:14:06.545Z,22.90
2018-11-27T06:16:34.850Z,21.90
2018-11-27T06:19:03.060Z,23.07
2018-11-27T06:21:31.249Z,20.73
2018-11-27T06:23:59.451Z,20.67
2018-11-27T06:26:27.694Z,23.10
2018-11-27T06:28:55.888Z,21.70
2018-11-27T06:31:24.089Z,24.07
2018-11-27T06:33:52.272Z,22.50
2018-11-27T06:36:20.485Z,28.60
2018-11-27T06:38:48.692Z,20.47
2018-11-27T06:41:16.897Z,21.50
2018-11-27T06:43:45.089Z,22.13
2018-11-27T06:46:13.264Z,21.70
2018-11-27T06:48:41.471Z,20.70
2018-11-27T06:51:09.680Z,20.23
2018-11-27T06:53:37.897Z,19.87
2018-11-27T06:56:06.181Z,22.03
2018-11-27T06:58:34.463Z,24.03
2018-11-27T07:01:02.727Z,21.07
2018-11-27T07:03:30.906Z,22.33
2018-11-27T07:05:59.100Z,22.40
2018-11-27T07:08:27.459Z,22.83
2018-11-27T07:10:55.485Z,20.60
2018-11-27T07:13:24.721Z,21.93
2018-11-27T07:15:53.953Z,22.00
2018-11-27T07:18:22.149Z,23.50
2018-11-27T07:20:50.335Z,20.40
2018-11-27T07:23:18.573Z,23.50
2018-11-27T07:25:46.793Z,22.67
2018-11-27T07:28:14.989Z,22.53
2018-11-27T07:30:43.247Z,18.97
2018-11-27T07:33:11.466Z,19.93
2018-11-27T07:35:39.699Z,23.10
2018-11-27T07:38:08.006Z,21.40
2018-11-27T07:40:36.261Z,21.97
2018-11-27T07:43:12.856Z,22.90
2018-11-27T07:45:41.165Z,22.10
2018-11-27T07:48:09.963Z,21.90
2018-11-27T07:50:38.179Z,23.57
2018-11-27T07:53:06.767Z,21.83
2018-11-27T07:55:34.995Z,22.37
2018-11-27T07:58:03.654Z,20.03
2018-11-27T08:00:31.870Z,22.00
2018-11-27T08:03:00.135Z,20.13
2018-11-27T08:05:33.661Z,21.07
2018-11-27T08:08:01.889Z,18.30
2018-11-27T08:10:31.067Z,18.93
2018-11-27T08:12:59.284Z,24.17
2018-11-27T08:15:28.590Z,23.20
2018-11-27T08:17:56.850Z,22.40
2018-11-27T08:20:32.674Z,20.13
2018-11-27T08:23:00.934Z,21.07
2018-11-27T08:25:29.160Z,26.50
2018-11-27T08:27:57.447Z,19.57
2018-11-27T08:30:25.713Z,22.77
2018-11-27T08:32:54.627Z,20.27
2018-11-27T08:35:24.667Z,21.80
2018-11-27T08:37:53.757Z,24.00
2018-11-27T08:40:22.995Z,21.17
2018-11-27T08:42:51.255Z,22.70
2018-11-27T08:45:20.389Z,22.33
2018-11-27T08:47:49.341Z,25.37
2018-11-27T08:50:19.518Z,23.70
2018-11-27T08:52:48.891Z,23.23
2018-11-27T08:55:18.865Z,23.07
2018-11-27T08:57:47.548Z,23.10
2018-11-27T09:00:17.563Z,23.10
2018-11-27T09:02:45.873Z,21.87
2018-11-27T09:05:14.286Z,24.30
2018-11-27T09:07:42.924Z,24.47
2018-11-27T09:10:13.487Z,24.37
2018-11-27T09:12:41.710Z,28.97
2018-11-27T09:15:11.534Z,22.80
2018-11-27T09:17:39.905Z,24.93
2018-11-27T09:20:09.842Z,22.87
2018-11-27T09:22:38.326Z,27.60
2018-11-27T09:25:08.742Z,27.47
2018-11-27T09:27:37.090Z,26.23
2018-11-27T09:30:16.243Z,26.00
2018-11-27T09:32:44.450Z,29.30
2018-11-27T09:35:12.670Z,26.30
2018-11-27T09:37:40.941Z,26.73
2018-11-27T09:40:14.002Z,32.43
2018-11-27T09:42:43.026Z,33.40
2018-11-27T09:45:13.445Z,34.77
2018-11-27T09:47:42.142Z,33.50
2018-11-27T09:50:11.578Z,30.37
2018-11-27T09:52:39.826Z,36.33
2018-11-27T09:55:13.278Z,34.90
2018-11-27T09:57:41.670Z,35.30
2018-11-27T10:00:12.566Z,34.30
2018-11-27T10:02:47.065Z,31.13
2018-11-27T10:05:15.603Z,35.87
2018-11-27T10:07:43.988Z,34.90
2018-11-27T10:10:13.577Z,29.37
2018-11-27T10:12:41.806Z,34.67
2018-11-27T10:15:14.705Z,34.80
2018-11-27T10:17:43.049Z,33.83
2018-11-27T10:20:16.369Z,35.57
2018-11-27T10:22:44.589Z,34.90
2018-11-27T10:25:12.790Z,37.00
2018-11-27T10:27:41.365Z,39.63
2018-11-27T10:30:15.507Z,36.17
2018-11-27T10:32:43.698Z,35.23
2018-11-27T10:35:17.431Z,41.90
2018-11-27T10:37:45.659Z,39.73
2018-11-27T10:40:13.882Z,37.43
2018-11-27T10:42:42.180Z,38.93
2018-11-27T10:45:12.276Z,37.80
2018-11-27T10:47:40.514Z,41.20
2018-11-27T10:50:10.956Z,38.37
2018-11-27T10:52:40.438Z,37.77
2018-11-27T10:55:10.983Z,37.60
2018-11-27T10:57:39.214Z,40.70
2018-11-27T11:00:16.876Z,35.53
2018-11-27T11:02:49.322Z,43.03
2018-11-27T11:05:17.547Z,41.07
2018-11-27T11:07:45.783Z,41.40
2018-11-27T11:10:14.034Z,40.70
2018-11-27T11:12:42.310Z,42.73
2018-11-27T11:15:10.559Z,38.67
2018-11-27T11:17:38.774Z,45.03
2018-11-27T11:20:08.022Z,40.10
2018-11-27T11:22:36.234Z,43.07
2018-11-27T11:25:04.764Z,45.00
2018-11-27T11:27:33.021Z,42.30
2018-11-27T11:30:01.248Z,42.33
2018-11-27T11:32:29.507Z,42.17
2018-11-27T11:34:57.752Z,40.10
2018-11-27T11:37:25.958Z,47.63
2018-11-27T11:39:54.180Z,40.63
2018-11-27T11:42:22.383Z,42.73
2018-11-27T11:44:50.619Z,44.20
2018-11-27T11:47:18.814Z,43.63
2018-11-27T11:49:47.028Z,43.33
2018-11-27T11:52:15.254Z,48.30
2018-11-27T11:54:43.466Z,44.30
2018-11-27T11:57:11.819Z,46.37
2018-11-27T11:59:40.096Z,39.43
2018-11-27T12:02:08.323Z,50.30
2018-11-27T12:04:36.636Z,44.17
2018-11-27T12:07:04.846Z,43.23
2018-11-27T12:09:33.102Z,43.47
2018-11-27T12:12:01.306Z,48.60
2018-11-27T12:14:29.613Z,44.60
2018-11-27T12:16:57.809Z,39.27
2018-11-27T12:19:26.719Z,48.33
2018-11-27T12:21:56.057Z,49.77
2018-11-27T12:24:24.303Z,46.13
2018-11-27T12:26:52.499Z,49.43
2018-11-27T12:29:20.704Z,43.80
2018-11-27T12:31:49.003Z,45.50
2018-11-27T12:34:17.223Z,42.33
2018-11-27T12:36:45.459Z,51.37
2018-11-27T12:39:13.683Z,49.43
2018-11-27T12:41:41.909Z,52.90
2018-11-27T12:44:10.251Z,54.80
2018-11-27T12:46:38.479Z,46.20
2018-11-27T12:49:06.687Z,48.60
2018-11-27T12:51:34.932Z,52.27
2018-11-27T12:54:03.216Z,53.30
2018-11-27T12:56:31.442Z,51.77
2018-11-27T12:58:59.650Z,50.17
2018-11-27T13:01:27.938Z,56.80
2018-11-27T13:03:56.199Z,47.00
2018-11-27T13:06:27.770Z,51.17
2018-11-27T13:08:52.662Z,53.40
2018-11-27T13:11:20.878Z,55.20
2018-11-27T13:13:49.077Z,52.07
2018-11-27T13:16:17.287Z,55.37
2018-11-27T13:18:45.518Z,54.80
2018-11-27T13:21:13.743Z,58.17
2018-11-27T13:23:41.959Z,60.77
2018-11-27T13:26:10.183Z,54.63
2018-11-27T13:28:38.434Z,51.53
2018-11-27T13:31:08.744Z,55.43
2018-11-27T13:33:59.690Z,55.37
2018-11-27T13:36:27.938Z,57.57
2018-11-27T13:39:06.325Z,54.83
2018-11-27T13:41:34.573Z,58.00
2018-11-27T13:44:02.794Z,57.10
2018-11-27T13:46:30.998Z,54.43
2018-11-27T13:48:59.258Z,61.20
2018-11-27T13:51:27.488Z,57.67
2018-11-27T13:53:55.744Z,55.63
2018-11-27T13:56:23.987Z,63.23
2018-11-27T13:58:52.249Z,61.13
2018-11-27T14:01:20.515Z,64.67
2018-11-27T14:03:48.813Z,59.60
2018-11-27T14:06:17.033Z,60.73
2018-11-27T14:08:45.260Z,64.80
2018-11-27T14:11:18.980Z,63.90
2018-11-27T14:13:41.729Z,64.80
2018-11-27T14:16:09.968Z,64.00
2018-11-27T14:18:38.231Z,65.93
2018-11-27T14:21:06.522Z,67.47
2018-11-27T14:23:34.786Z,66.20
2018-11-27T14:26:03.070Z,72.77
2018-11-27T14:28:31.234Z,74.60
2018-11-27T14:30:59.462Z,77.73
2018-11-27T14:33:27.686Z,68.77
2018-11-27T14:35:55.929Z,77.47
2018-11-27T14:38:24.202Z,70.60
2018-11-27T14:40:52.670Z,86.27
2018-11-27T14:43:20.925Z,78.70
2018-11-27T14:45:49.159Z,74.20
2018-11-27T14:48:17.421Z,76.10
2018-11-27T14:50:45.591Z,72.67
2018-11-27T14:53:13.840Z,73.30
2018-11-27T14:55:42.052Z,74.83
2018-11-27T14:58:15.061Z,72.40
2018-11-27T15:00:38.484Z,68.97
2018-11-27T15:03:06.714Z,73.47
2018-11-27T15:05:36.118Z,76.63
2018-11-27T15:08:05.747Z,70.53
2018-11-27T15:10:34.067Z,67.20
2018-11-27T15:13:02.291Z,74.53
2018-11-27T15:15:30.562Z,63.73
2018-11-27T15:17:58.762Z,73.40
2018-11-27T15:20:26.981Z,75.07
2018-11-27T15:22:55.215Z,73.10
2018-11-27T15:25:23.466Z,70.87
2018-11-27T15:27:51.686Z,70.90
2018-11-27T15:30:24.534Z,74.33
2018-11-27T15:32:54.081Z,71.40
2018-11-27T15:35:22.307Z,67.90
2018-11-27T15:37:50.637Z,70.80
2018-11-27T15:40:20.342Z,76.20
2018-11-27T15:42:48.565Z,82.53
2018-11-27T15:45:18.879Z,74.10
2018-11-27T15:47:47.218Z,77.30
2018-11-27T15:50:15.470Z,66.30
2018-11-27T15:52:43.717Z,71.33
2018-11-27T15:55:19.524Z,64.13
2018-11-27T15:57:48.761Z,71.70
2018-11-27T16:00:17.856Z,65.60
2018-11-27T16:02:46.156Z,67.87
2018-11-27T16:05:14.883Z,66.80
2018-11-27T16:07:43.306Z,66.97
2018-11-27T16:10:14.070Z,64.27
2018-11-27T16:12:42.313Z,69.77
2018-11-27T16:15:12.239Z,67.47
2018-11-27T16:17:40.499Z,64.70
2018-11-27T16:20:11.082Z,67.00
2018-11-27T16:22:39.450Z,66.90
2018-11-27T16:25:09.644Z,67.03
2018-11-27T16:27:37.863Z,61.30
2018-11-27T16:30:11.202Z,62.03
2018-11-27T16:32:39.526Z,65.50
2018-11-27T16:35:07.842Z,70.97
2018-11-27T16:37:36.071Z,65.00
2018-11-27T16:40:07.746Z,65.50
2018-11-27T16:42:35.995Z,55.90
2018-11-27T16:45:05.338Z,61.90
2018-11-27T16:47:33.597Z,60.47
2018-11-27T16:50:01.842Z,59.47
2018-11-27T16:52:30.152Z,60.43
2018-11-27T16:54:58.379Z,60.63
2018-11-27T16:57:26.680Z,54.83
2018-11-27T16:59:54.914Z,61.47
2018-11-27T17:02:23.146Z,64.67
2018-11-27T17:04:51.390Z,58.60
2018-11-27T17:07:19.606Z,67.23
2018-11-27T17:09:47.827Z,66.10
2018-11-27T17:12:16.142Z,59.70
2018-11-27T17:14:44.433Z,64.97
2018-11-27T17:17:12.715Z,69.20
2018-11-27T17:19:41.015Z,63.20
2018-11-27T17:22:09.282Z,60.90
2018-11-27T17:24:37.539Z,63.13
2018-11-27T17:27:06.194Z,62.80
2018-11-27T17:29:34.434Z,63.03
2018-11-27T17:32:02.788Z,59.97
2018-11-27T17:34:31.025Z,60.33
2018-11-27T17:36:59.294Z,63.17
2018-11-27T17:39:27.546Z,58.17
2018-11-27T17:41:55.803Z,58.13
2018-11-27T17:44:24.025Z,60.03
2018-11-27T17:46:52.301Z,59.70
2018-11-27T17:49:20.551Z,61.33
2018-11-27T17:51:48.779Z,61.33
2018-11-27T17:54:17.594Z,62.13
2018-11-27T17:56:45.830Z,61.77
2018-11-27T17:59:14.113Z,66.03
2018-11-27T18:01:42.350Z,65.43
2018-11-27T18:04:10.595Z,57.60
2018-11-27T18:06:38.826Z,64.40
2018-11-27T18:09:08.664Z,67.60
2018-11-27T18:11:36.925Z,69.07
2018-11-27T18:14:05.177Z,73.17
2018-11-27T18:16:34.155Z,61.13
2018-11-27T18:19:02.381Z,66.33
2018-11-27T18:21:30.707Z,67.07
2018-11-27T18:23:59.025Z,64.97
2018-11-27T18:26:27.316Z,66.77
2018-11-27T18:28:55.556Z,67.97
2018-11-27T18:31:23.799Z,63.97
2018-11-27T18:33:52.037Z,60.57
2018-11-27T18:36:25.729Z,62.47
2018-11-27T18:38:49.072Z,63.57
2018-11-27T18:41:17.385Z,69.03
2018-11-27T18:43:45.624Z,65.13
2018-11-27T18:46:14.018Z,66.43
2018-11-27T18:48:42.278Z,63.47
2018-11-27T18:51:10.602Z,66.40
2018-11-27T18:53:38.848Z,66.23
2018-11-27T18:56:07.175Z,67.57
2018-11-27T18:58:35.770Z,66.07
2018-11-27T19:01:04.398Z,65.70
2018-11-27T19:03:32.610Z,67.80
2018-11-27T19:06:00.909Z,64.93
2018-11-27T19:08:29.179Z,74.80
2018-11-27T19:10:57.423Z,64.20
2018-11-27T19:13:25.644Z,63.93
2018-11-27T19:15:53.890Z,69.93
2018-11-27T19:18:24.084Z,65.50
2018-11-27T19:20:52.418Z,75.93
2018-11-27T19:23:22.882Z,73.43
2018-11-27T19:25:51.514Z,68.07
2018-11-27T19:28:19.741Z,72.00
2018-11-27T19:30:48.343Z,65.60
2018-11-27T19:33:16.619Z,82.33
2018-11-27T19:35:45.703Z,78.90
2018-11-27T19:38:15.325Z,73.40
2018-11-27T19:40:43.549Z,71.70
2018-11-27T19:43:11.772Z,73.10
2018-11-27T19:45:40.059Z,71.93
2018-11-27T19:48:09.187Z,72.73
2018-11-27T19:50:37.805Z,74.47
2018-11-27T19:53:11.974Z,75.43
2018-11-27T19:55:36.698Z,83.63
2018-11-27T19:58:05.820Z,81.37
2018-11-27T20:00:34.068Z,79.30
2018-11-27T20:03:02.578Z,81.63
2018-11-27T20:05:30.867Z,74.67
2018-11-27T20:07:59.161Z,79.20
2018-11-27T20:10:27.412Z,83.27
2018-11-27T20:12:55.666Z,84.07
2018-11-27T20:15:25.719Z,79.93
2018-11-27T20:17:55.777Z,80.67
2018-11-27T20:20:25.066Z,82.63
2018-11-27T20:22:54.070Z,82.20
2018-11-27T20:25:22.967Z,83.37
2018-11-27T20:27:51.381Z,82.97
2018-11-27T20:30:22.467Z,96.77
2018-11-27T20:32:57.736Z,81.20
2018-11-27T20:35:26.314Z,76.53
2018-11-27T20:37:54.959Z,86.23
2018-11-27T20:40:23.230Z,82.23
2018-11-27T20:42:51.762Z,81.03
2018-11-27T20:45:20.814Z,81.10
2018-11-27T20:47:54.430Z,84.10
2018-11-27T20:50:23.201Z,82.43
2018-11-27T20:52:51.534Z,82.57
2018-11-27T20:55:20.275Z,86.20
2018-11-27T20:57:52.451Z,83.20
2018-11-27T21:00:22.944Z,79.63
2018-11-27T21:02:52.960Z,78.63
2018-11-27T21:05:21.195Z,79.93
2018-11-27T21:07:49.466Z,80.90
2018-11-27T21:10:17.795Z,80.77
2018-11-27T21:12:46.115Z,77.30
2018-11-27T21:15:15.245Z,76.23
2018-11-27T21:20:26.179Z,70.07
2018-11-27T21:22:54.539Z,71.67
2018-11-27T21:25:23.711Z,70.40
2018-11-27T21:28:08.813Z,72.27
2018-11-27T21:30:37.181Z,66.80
2018-11-27T21:33:05.799Z,63.47
2018-11-27T21:35:34.066Z,59.47
2018-11-27T21:38:02.294Z,58.80
2018-11-27T21:40:30.590Z,69.07
2018-11-27T21:42:58.856Z,63.23
2018-11-27T21:45:27.691Z,57.47
2018-11-27T21:47:57.277Z,52.03
2018-11-27T21:50:30.879Z,66.80
2018-11-27T21:53:00.175Z,58.70
2018-11-27T21:55:28.419Z,62.67
2018-11-27T21:57:56.641Z,52.83
2018-11-27T22:00:25.806Z,54.37
2018-11-27T22:02:54.087Z,55.90
2018-11-27T22:05:22.338Z,58.03
2018-11-27T22:07:50.600Z,52.43
2018-11-27T22:10:20.170Z,48.93
2018-11-27T22:12:51.543Z,50.57
2018-11-27T22:15:21.135Z,48.23
2018-11-27T22:17:49.350Z,47.53
2018-11-27T22:20:21.299Z,49.00
2018-11-27T22:22:45.838Z,50.17
2018-11-27T22:25:14.579Z,46.70
2018-11-27T22:27:43.210Z,45.60
2018-11-27T22:30:14.235Z,44.57
2018-11-27T22:32:43.797Z,42.83
2018-11-27T22:35:12.215Z,40.67
2018-11-27T22:37:40.477Z,42.70
2018-11-27T22:40:12.783Z,45.03
2018-11-27T22:42:40.995Z,45.03
2018-11-27T22:45:14.218Z,46.10
2018-11-27T22:47:42.445Z,41.23
2018-11-27T22:50:11.943Z,39.90
2018-11-27T22:52:40.203Z,44.83
2018-11-27T22:55:08.828Z,38.40
2018-11-27T22:57:37.086Z,38.70
2018-11-27T23:00:19.539Z,37.57
2018-11-27T23:02:47.789Z,40.77
2018-11-27T23:05:16.550Z,35.53
2018-11-27T23:07:44.782Z,40.20
2018-11-27T23:10:13.673Z,41.63
2018-11-27T23:12:41.885Z,39.23
2018-11-27T23:15:13.334Z,39.30
2018-11-27T23:17:41.606Z,37.80
2018-11-27T23:20:11.941Z,37.23
2018-11-27T23:22:40.162Z,37.57
2018-11-27T23:25:09.937Z,43.50
2018-11-27T23:27:38.159Z,37.40
2018-11-27T23:30:22.119Z,31.30
2018-11-27T23:32:50.395Z,27.40
2018-11-27T23:35:18.626Z,34.30
2018-11-27T23:37:46.882Z,30.23
2018-11-27T23:40:16.679Z,33.33
2018-11-27T23:42:45.170Z,29.43
2018-11-27T23:45:21.794Z,37.03
2018-11-27T23:47:50.033Z,31.90
2018-11-27T23:50:19.158Z,33.00
2018-11-27T23:52:47.440Z,33.27
2018-11-27T23:55:16.243Z,34.60
2018-11-27T23:57:44.740Z,33.53
